Time;durP1;ratioP1;P1;durP2;ratioP2;P2;SDS_P1;SDS_P2;PMS_P1;PMS_P2;Temp;Humidity;BMP_temperature;BMP_pressure;BME280_temperature;BME280_humidity;BME280_pressure;Samples;Min_cycle;Max_cycle;Signal;HPM_P1;HPM_P2
2021/09/26 00:01:26;;;;;;;29.65;21.67;;;14.60;99.90;;;;;;5051316;28;20017;-80
2021/09/26 00:03:52;;;;;;;32.35;21.25;;;14.60;99.90;;;;;;5050993;28;20028;-80
2021/09/26 00:06:18;;;;;;;27.92;19.90;;;14.60;99.90;;;;;;5054506;28;20478;-80
2021/09/26 00:08:44;;;;;;;30.88;20.60;;;14.50;99.90;;;;;;5055005;28;20017;-80
2021/09/26 00:11:10;;;;;;;32.22;21.27;;;14.50;99.90;;;;;;5056837;28;20434;-80
2021/09/26 00:13:38;;;;;;;29.92;21.63;;;14.50;99.90;;;;;;5056196;28;20025;-79
2021/09/26 00:16:05;;;;;;;29.67;20.30;;;14.50;99.90;;;;;;5055843;28;20017;-80
2021/09/26 00:18:31;;;;;;;30.77;20.55;;;14.50;99.90;;;;;;5055674;28;20113;-80
2021/09/26 00:20:57;;;;;;;38.67;25.95;;;14.40;99.90;;;;;;5055316;28;20048;-80
2021/09/26 00:23:23;;;;;;;38.63;25.88;;;14.40;99.90;;;;;;5054393;28;20394;-80
2021/09/26 00:25:51;;;;;;;34.45;24.48;;;14.40;99.90;;;;;;5056463;28;20033;-80
2021/09/26 00:28:18;;;;;;;31.15;21.92;;;14.40;99.90;;;;;;5055944;28;20019;-80
2021/09/26 00:30:44;;;;;;;29.83;21.58;;;14.40;99.90;;;;;;5054917;28;20144;-80
2021/09/26 00:33:10;;;;;;;30.17;21.40;;;14.30;99.90;;;;;;5055804;28;20052;-80
2021/09/26 00:35:36;;;;;;;34.03;20.38;;;14.30;99.90;;;;;;5056258;28;20478;-80
2021/09/26 00:38:02;;;;;;;34.85;22.55;;;14.30;99.90;;;;;;5055986;28;20044;-80
2021/09/26 00:40:27;;;;;;;32.65;21.75;;;14.30;99.90;;;;;;5054478;28;20470;-80
2021/09/26 00:42:53;;;;;;;35.53;22.48;;;14.30;99.90;;;;;;5054487;28;20055;-80
2021/09/26 00:45:19;;;;;;;31.55;22.63;;;14.30;99.90;;;;;;5054483;28;20124;-80
2021/09/26 00:47:45;;;;;;;36.92;22.05;;;14.20;99.90;;;;;;5054359;28;20032;-80
2021/09/26 00:50:10;;;;;;;33.15;21.58;;;14.20;99.90;;;;;;5054763;28;20031;-80
2021/09/26 00:52:44;;;;;;;35.67;22.25;;;14.20;99.90;;;;;;5054968;28;20116;-80
2021/09/26 00:55:10;;;;;;;31.33;22.27;;;14.20;99.90;;;;;;5054672;28;20021;-80
2021/09/26 00:57:37;;;;;;;31.80;22.45;;;14.20;99.90;;;;;;5054595;28;20060;-80
2021/09/26 01:00:04;;;;;;;32.15;23.48;;;14.20;99.90;;;;;;5055417;28;20013;-80
2021/09/26 01:02:30;;;;;;;34.85;23.58;;;14.20;99.90;;;;;;5054499;28;20181;-80
2021/09/26 01:04:56;;;;;;;33.97;23.02;;;14.20;99.90;;;;;;5055209;28;20554;-80
2021/09/26 01:07:33;;;;;;;32.53;22.92;;;14.20;99.90;;;;;;5054090;28;20112;-80
2021/09/26 01:10:09;;;;;;;35.03;23.80;;;14.20;99.90;;;;;;5053980;28;20063;-80
2021/09/26 01:12:48;;;;;;;33.38;22.98;;;14.20;99.90;;;;;;5055573;28;20023;-80
2021/09/26 01:15:46;;;;;;;34.05;23.38;;;14.20;99.90;;;;;;5055540;28;20087;-80
2021/09/26 01:18:31;;;;;;;33.08;22.98;;;14.20;99.90;;;;;;5054435;28;20033;-80
2021/09/26 01:21:22;;;;;;;32.58;22.42;;;14.10;99.90;;;;;;5041882;28;20018;-80
2021/09/26 01:24:09;;;;;;;30.33;22.23;;;14.20;99.90;;;;;;5044354;28;20021;-80
2021/09/26 01:26:51;;;;;;;32.05;24.45;;;14.10;99.90;;;;;;5055303;28;20040;-80
2021/09/26 01:29:28;;;;;;;38.20;24.35;;;14.20;99.90;;;;;;5054775;28;20026;-80
2021/09/26 01:31:58;;;;;;;33.72;23.80;;;14.10;99.90;;;;;;5054040;28;20442;-80
2021/09/26 01:34:38;;;;;;;31.83;21.65;;;14.10;99.90;;;;;;5051488;28;20668;-80
2021/09/26 01:37:32;;;;;;;36.20;24.90;;;14.10;99.90;;;;;;5053730;28;20143;-80
2021/09/26 01:40:22;;;;;;;32.40;23.63;;;14.10;99.90;;;;;;5054724;28;20033;-80
2021/09/26 01:42:51;;;;;;;33.15;22.58;;;14.10;99.90;;;;;;5053484;28;20116;-80
2021/09/26 01:45:26;;;;;;;34.40;24.08;;;14.10;99.90;;;;;;5054856;28;20037;-80
2021/09/26 01:47:59;;;;;;;39.05;25.08;;;14.10;99.90;;;;;;5054614;28;20100;-80
2021/09/26 01:50:25;;;;;;;40.78;23.65;;;14.10;99.90;;;;;;5053633;28;20021;-80
2021/09/26 01:52:52;;;;;;;45.10;25.25;;;14.10;99.90;;;;;;5053209;28;20025;-80
2021/09/26 01:55:22;;;;;;;35.95;22.30;;;14.10;99.90;;;;;;5054834;28;20021;-80
2021/09/26 01:57:48;;;;;;;34.83;24.48;;;14.00;99.90;;;;;;5053091;28;20036;-80
2021/09/26 02:00:14;;;;;;;37.33;24.88;;;14.10;99.90;;;;;;5053423;28;20029;-80
2021/09/26 02:02:43;;;;;;;37.33;24.55;;;14.00;99.90;;;;;;5053262;28;20096;-80
2021/09/26 02:05:11;;;;;;;41.00;25.85;;;14.00;99.90;;;;;;5053165;28;20071;-80
2021/09/26 02:07:39;;;;;;;36.80;24.92;;;14.00;99.90;;;;;;5052504;28;20021;-80
2021/09/26 02:10:05;;;;;;;36.65;25.88;;;13.90;99.90;;;;;;5054047;28;20376;-80
2021/09/26 02:12:32;;;;;;;39.72;27.20;;;13.90;99.90;;;;;;5053257;28;20029;-80
2021/09/26 02:14:59;;;;;;;46.88;27.95;;;13.90;99.90;;;;;;5052321;28;20497;-80
2021/09/26 02:17:28;;;;;;;41.90;26.65;;;13.80;99.90;;;;;;5052662;28;20064;-80
2021/09/26 02:20:01;;;;;;;39.05;27.13;;;13.80;99.90;;;;;;5052710;28;20036;-80
2021/09/26 02:22:29;;;;;;;41.33;27.83;;;13.80;99.90;;;;;;5053828;28;20021;-80
2021/09/26 02:24:55;;;;;;;40.08;27.23;;;13.80;99.90;;;;;;5054212;28;20029;-80
2021/09/26 02:27:21;;;;;;;35.83;24.75;;;13.80;99.90;;;;;;5052610;28;20021;-81
2021/09/26 02:29:46;;;;;;;37.17;26.15;;;13.80;99.90;;;;;;5053641;28;20082;-80
2021/09/26 02:32:12;;;;;;;39.78;26.55;;;13.80;99.90;;;;;;5054090;28;20017;-80
2021/09/26 02:34:38;;;;;;;34.50;25.83;;;13.80;99.90;;;;;;5053348;28;20056;-80
2021/09/26 02:37:04;;;;;;;41.40;25.67;;;13.80;99.90;;;;;;5054157;28;20497;-80
2021/09/26 02:39:29;;;;;;;37.40;24.92;;;13.80;99.90;;;;;;5053356;28;20454;-80
2021/09/26 02:42:13;;;;;;;35.53;24.63;;;13.80;99.90;;;;;;5053968;28;20100;-80
2021/09/26 02:44:46;;;;;;;36.92;23.80;;;13.80;99.90;;;;;;5052235;28;20445;-80
2021/09/26 02:47:17;;;;;;;36.63;23.50;;;13.70;99.90;;;;;;5052511;28;20033;-80
2021/09/26 02:49:43;;;;;;;35.20;24.25;;;13.80;99.90;;;;;;5052097;28;20115;-80
2021/09/26 02:52:10;;;;;;;29.98;21.38;;;13.70;99.90;;;;;;5052081;28;20025;-80
2021/09/26 02:54:40;;;;;;;28.23;19.77;;;13.70;99.90;;;;;;5051914;28;20475;-80
2021/09/26 02:57:07;;;;;;;31.67;19.70;;;13.70;99.90;;;;;;5052377;28;20536;-80
2021/09/26 02:59:33;;;;;;;36.85;24.08;;;13.60;99.90;;;;;;5053087;28;20538;-79
2021/09/26 03:01:59;;;;;;;34.33;23.60;;;13.60;99.90;;;;;;5051629;28;20012;-80
2021/09/26 03:04:25;;;;;;;36.13;20.77;;;13.50;99.90;;;;;;5052923;28;20055;-79
2021/09/26 03:06:52;;;;;;;33.35;22.63;;;13.40;99.90;;;;;;5053442;28;20029;-80
2021/09/26 03:09:17;;;;;;;32.30;22.52;;;13.40;99.90;;;;;;5051603;28;20033;-80
2021/09/26 03:11:43;;;;;;;26.02;19.77;;;13.30;99.90;;;;;;5051552;28;20128;-80
2021/09/26 03:14:09;;;;;;;27.98;21.80;;;13.30;99.90;;;;;;5051346;28;20471;-80
2021/09/26 03:16:35;;;;;;;30.80;21.05;;;13.20;99.90;;;;;;5051735;28;20099;-79
2021/09/26 03:19:00;;;;;;;27.70;20.08;;;13.20;99.90;;;;;;5050257;28;20029;-79
2021/09/26 03:21:27;;;;;;;25.35;19.23;;;13.10;99.90;;;;;;5049562;28;20545;-80
2021/09/26 03:23:54;;;;;;;24.33;19.02;;;13.00;99.90;;;;;;5047918;28;20064;-80
2021/09/26 03:26:21;;;;;;;25.90;19.75;;;12.90;99.90;;;;;;5047975;28;20527;-80
2021/09/26 03:28:46;;;;;;;28.08;20.00;;;12.90;99.90;;;;;;5050689;28;20458;-80
2021/09/26 03:31:12;;;;;;;28.48;19.38;;;12.80;99.90;;;;;;5049350;28;20028;-80
2021/09/26 03:33:38;;;;;;;27.85;19.33;;;12.70;99.90;;;;;;5047641;28;20409;-80
2021/09/26 03:36:04;;;;;;;29.98;20.50;;;12.70;99.90;;;;;;5045781;28;20021;-80
2021/09/26 03:38:30;;;;;;;25.70;18.95;;;12.60;99.90;;;;;;5048501;28;20524;-80
2021/09/26 03:40:55;;;;;;;25.77;18.33;;;12.60;99.90;;;;;;5047058;28;20368;-79
2021/09/26 03:43:21;;;;;;;32.95;20.70;;;12.50;99.90;;;;;;5047931;28;20021;-80
2021/09/26 03:45:50;;;;;;;28.08;18.98;;;12.50;99.90;;;;;;5032149;28;20124;-80
2021/09/26 03:48:22;;;;;;;28.73;19.38;;;12.40;99.90;;;;;;5034369;28;20027;-80
2021/09/26 03:50:50;;;;;;;31.65;20.33;;;12.40;99.90;;;;;;5049730;28;20021;-80
2021/09/26 03:53:17;;;;;;;29.27;18.85;;;12.40;99.90;;;;;;5050142;28;20063;-80
2021/09/26 03:55:42;;;;;;;28.88;20.20;;;12.30;99.90;;;;;;5031689;28;20021;-80
2021/09/26 03:58:08;;;;;;;29.27;19.42;;;12.20;99.90;;;;;;5046606;28;20079;-80
2021/09/26 04:00:34;;;;;;;26.33;18.23;;;12.20;99.90;;;;;;5042486;28;20032;-80
2021/09/26 04:03:00;;;;;;;22.65;16.65;;;12.10;99.90;;;;;;5030946;28;20368;-80
2021/09/26 04:05:26;;;;;;;24.33;17.48;;;12.00;99.90;;;;;;5047281;28;20044;-80
2021/09/26 04:07:52;;;;;;;25.75;17.48;;;12.00;99.90;;;;;;5051627;28;20029;-80
2021/09/26 04:10:17;;;;;;;22.35;16.73;;;12.00;99.90;;;;;;5052363;28;20025;-80
2021/09/26 04:12:46;;;;;;;28.27;18.73;;;11.90;99.90;;;;;;5050896;28;20025;-80
2021/09/26 04:15:13;;;;;;;24.20;16.73;;;11.90;99.90;;;;;;5051345;28;20021;-80
2021/09/26 04:17:38;;;;;;;23.38;16.95;;;11.90;99.90;;;;;;5051332;28;20025;-80
2021/09/26 04:20:08;;;;;;;21.63;15.55;;;11.90;99.90;;;;;;5050824;28;20036;-80
2021/09/26 04:22:34;;;;;;;20.80;15.70;;;11.90;99.90;;;;;;5052323;28;20032;-80
2021/09/26 04:25:00;;;;;;;29.48;19.15;;;11.90;99.90;;;;;;5050725;28;20478;-80
2021/09/26 04:27:26;;;;;;;31.30;19.08;;;11.80;99.90;;;;;;5051141;28;20024;-80
2021/09/26 04:29:54;;;;;;;28.90;19.92;;;11.80;99.90;;;;;;5051842;28;20024;-80
2021/09/26 04:32:20;;;;;;;28.48;19.42;;;11.80;99.90;;;;;;5050923;28;20017;-80
2021/09/26 04:34:46;;;;;;;26.15;17.25;;;11.70;99.90;;;;;;5051909;28;20028;-80
2021/09/26 04:37:11;;;;;;;22.13;15.70;;;11.70;99.90;;;;;;5051135;28;20408;-80
2021/09/26 04:39:37;;;;;;;24.50;16.95;;;11.70;99.90;;;;;;5051337;28;20085;-80
2021/09/26 04:42:05;;;;;;;23.52;15.60;;;11.70;99.90;;;;;;5070281;28;20521;-80
2021/09/26 04:44:30;;;;;;;37.50;22.92;;;11.70;99.90;;;;;;5051396;28;20486;-80
2021/09/26 04:46:56;;;;;;;25.55;16.98;;;11.70;99.90;;;;;;5050358;28;20029;-80
2021/09/26 04:49:27;;;;;;;25.27;17.48;;;11.70;99.90;;;;;;5049453;28;20021;-80
2021/09/26 04:51:54;;;;;;;23.75;17.50;;;11.80;99.90;;;;;;5053206;28;20029;-80
2021/09/26 04:54:19;;;;;;;22.40;16.05;;;11.80;99.90;;;;;;5054030;28;20466;-80
2021/09/26 04:56:45;;;;;;;22.48;16.30;;;11.80;99.90;;;;;;5054616;28;20116;-80
2021/09/26 04:59:11;;;;;;;23.67;16.55;;;11.90;99.90;;;;;;5054134;28;20115;-80
2021/09/26 05:01:36;;;;;;;25.63;16.10;;;11.90;99.90;;;;;;5055673;28;20037;-80
2021/09/26 05:04:02;;;;;;;21.48;14.73;;;11.90;99.90;;;;;;5054137;28;20052;-80
2021/09/26 05:06:27;;;;;;;22.83;15.40;;;11.90;99.90;;;;;;5054339;28;20040;-81
2021/09/26 05:08:53;;;;;;;19.55;15.77;;;11.90;99.90;;;;;;5055380;28;20199;-80
2021/09/26 05:11:19;;;;;;;22.02;16.27;;;12.00;99.90;;;;;;5055681;28;20048;-80
2021/09/26 05:13:44;;;;;;;24.48;17.58;;;12.00;99.90;;;;;;5053859;28;20071;-80
2021/09/26 05:16:10;;;;;;;21.27;16.95;;;12.00;99.90;;;;;;5054285;28;20025;-80
2021/09/26 05:18:37;;;;;;;24.02;17.38;;;12.10;99.90;;;;;;5055082;28;20025;-80
2021/09/26 05:21:04;;;;;;;22.67;17.58;;;12.20;99.90;;;;;;5055420;28;20025;-81
2021/09/26 05:23:29;;;;;;;24.17;17.83;;;12.30;99.90;;;;;;5055012;28;20017;-81
2021/09/26 05:25:55;;;;;;;25.40;19.05;;;12.30;99.90;;;;;;5054192;28;20554;-80
2021/09/26 05:28:20;;;;;;;27.35;18.98;;;12.40;99.90;;;;;;5048750;28;20021;-80
2021/09/26 05:30:47;;;;;;;26.83;18.45;;;12.50;99.90;;;;;;5054268;28;20029;-80
2021/09/26 05:33:13;;;;;;;28.50;19.15;;;12.60;99.90;;;;;;5054877;28;20017;-80
2021/09/26 05:35:40;;;;;;;26.13;18.67;;;12.60;99.90;;;;;;5055283;28;20021;-80
2021/09/26 05:38:05;;;;;;;27.58;17.40;;;12.70;99.90;;;;;;5054723;28;20064;-80
2021/09/26 05:40:31;;;;;;;25.67;17.55;;;12.80;99.90;;;;;;5056305;28;20063;-80
2021/09/26 05:42:57;;;;;;;25.23;17.42;;;12.80;99.90;;;;;;5071271;28;20029;-80
2021/09/26 05:45:23;;;;;;;21.30;16.20;;;12.80;99.90;;;;;;5054117;28;20044;-80
2021/09/26 05:47:48;;;;;;;20.55;15.93;;;12.90;99.90;;;;;;5050831;28;20356;-79
2021/09/26 05:50:14;;;;;;;20.75;15.30;;;12.90;99.90;;;;;;5052564;28;20032;-80
2021/09/26 05:52:40;;;;;;;21.23;16.48;;;12.90;99.90;;;;;;5050527;28;20029;-80
2021/09/26 05:55:06;;;;;;;20.95;15.13;;;13.10;99.90;;;;;;5050603;28;20021;-79
2021/09/26 05:57:32;;;;;;;22.50;16.10;;;13.10;99.90;;;;;;5052582;28;20478;-80
2021/09/26 05:59:59;;;;;;;21.55;15.90;;;13.20;99.90;;;;;;5052352;28;20511;-80
2021/09/26 06:02:26;;;;;;;23.40;18.08;;;13.20;99.90;;;;;;5052724;28;20441;-80
2021/09/26 06:04:53;;;;;;;26.50;20.42;;;13.30;99.90;;;;;;5054114;28;20061;-80
2021/09/26 06:07:18;;;;;;;27.50;18.42;;;13.30;99.90;;;;;;5053294;28;20048;-80
2021/09/26 06:09:44;;;;;;;25.02;18.15;;;13.40;99.90;;;;;;5052893;28;20087;-80
2021/09/26 06:12:11;;;;;;;22.67;17.40;;;13.50;99.90;;;;;;5053240;28;20067;-80
2021/09/26 06:14:38;;;;;;;29.00;19.58;;;13.50;99.90;;;;;;5054059;28;20100;-80
2021/09/26 06:17:04;;;;;;;26.75;18.55;;;13.70;99.90;;;;;;5054514;28;20024;-80
2021/09/26 06:19:30;;;;;;;24.63;18.30;;;13.80;99.90;;;;;;5052705;28;20108;-80
2021/09/26 06:21:55;;;;;;;26.17;19.75;;;13.90;99.90;;;;;;5054499;28;20106;-80
2021/09/26 06:24:21;;;;;;;23.60;18.02;;;14.00;99.90;;;;;;5052571;28;20026;-80
2021/09/26 06:26:47;;;;;;;24.55;18.45;;;14.10;99.90;;;;;;5054235;28;20474;-80
2021/09/26 06:29:13;;;;;;;23.70;18.67;;;14.30;99.90;;;;;;5053532;28;20103;-80
2021/09/26 06:31:39;;;;;;;25.10;17.90;;;14.30;99.90;;;;;;5052669;28;20075;-80
2021/09/26 06:34:05;;;;;;;26.10;18.23;;;14.40;99.90;;;;;;5053524;28;20029;-80
2021/09/26 06:36:31;;;;;;;23.38;17.17;;;14.60;99.90;;;;;;5051422;28;20021;-80
2021/09/26 06:38:57;;;;;;;25.60;17.15;;;14.70;99.90;;;;;;5051250;28;20623;-80
2021/09/26 06:41:23;;;;;;;20.65;16.10;;;14.90;99.90;;;;;;5050217;28;20029;-80
2021/09/26 06:43:49;;;;;;;24.20;18.25;;;15.00;99.90;;;;;;5050367;28;20052;-80
2021/09/26 06:46:15;;;;;;;35.15;24.40;;;15.10;99.90;;;;;;5050127;28;20028;-80
2021/09/26 06:48:41;;;;;;;28.42;22.02;;;15.20;99.90;;;;;;5050968;28;20420;-80
2021/09/26 06:51:06;;;;;;;32.63;20.95;;;15.30;99.90;;;;;;5050654;28;20025;-80
2021/09/26 06:53:32;;;;;;;28.25;20.88;;;15.40;99.90;;;;;;5050603;28;20021;-80
2021/09/26 06:55:58;;;;;;;26.45;20.63;;;15.50;99.90;;;;;;5051628;28;20017;-80
2021/09/26 06:58:24;;;;;;;27.92;20.33;;;15.60;99.90;;;;;;5049473;28;20119;-80
2021/09/26 07:00:50;;;;;;;30.40;20.80;;;15.60;99.90;;;;;;5047555;28;20479;-80
2021/09/26 07:03:16;;;;;;;23.45;17.92;;;15.70;99.90;;;;;;5048683;28;20025;-80
2021/09/26 07:05:43;;;;;;;20.42;14.60;;;15.80;99.90;;;;;;5051975;28;20040;-81
2021/09/26 07:08:08;;;;;;;19.98;13.57;;;15.80;99.90;;;;;;5051271;28;20079;-80
2021/09/26 07:10:34;;;;;;;21.20;13.52;;;15.90;99.90;;;;;;5050945;28;20426;-80
2021/09/26 07:13:00;;;;;;;15.68;12.63;;;16.00;99.90;;;;;;5051147;28;20118;-80
2021/09/26 07:15:26;;;;;;;16.55;13.27;;;16.10;99.90;;;;;;5051040;28;20018;-80
2021/09/26 07:17:56;;;;;;;15.40;13.23;;;16.20;99.90;;;;;;5051408;28;20021;-80
2021/09/26 07:20:29;;;;;;;16.63;12.90;;;16.30;99.90;;;;;;5050140;28;20037;-80
2021/09/26 07:23:03;;;;;;;18.15;12.48;;;16.40;99.90;;;;;;5050087;28;20490;-80
2021/09/26 07:25:30;;;;;;;16.42;12.90;;;16.50;99.90;;;;;;5049309;28;20032;-80
2021/09/26 07:27:56;;;;;;;16.23;11.77;;;16.60;99.90;;;;;;5049865;28;20352;-80
2021/09/26 07:30:22;;;;;;;16.10;11.45;;;16.80;99.90;;;;;;5051170;28;20021;-82
2021/09/26 07:32:48;;;;;;;14.50;11.15;;;16.90;99.90;;;;;;5047674;28;20025;-80
2021/09/26 07:35:14;;;;;;;14.80;10.70;;;17.00;99.90;;;;;;5047048;28;20020;-80
2021/09/26 07:37:40;;;;;;;14.85;10.15;;;17.10;99.90;;;;;;5051304;28;20033;-80
2021/09/26 07:40:07;;;;;;;14.23;9.95;;;17.20;99.90;;;;;;5049587;28;20028;-81
2021/09/26 07:42:33;;;;;;;15.10;10.45;;;17.30;99.90;;;;;;5049386;28;20028;-81
2021/09/26 07:45:06;;;;;;;13.43;9.63;;;17.40;99.90;;;;;;5049829;28;20029;-79
2021/09/26 07:47:33;;;;;;;15.68;11.15;;;17.40;99.90;;;;;;5051180;28;20061;-81
2021/09/26 07:50:00;;;;;;;15.00;11.95;;;17.50;99.90;;;;;;5050673;28;20016;-81
2021/09/26 07:52:26;;;;;;;16.88;11.63;;;17.70;99.90;;;;;;5048825;28;20546;-80
2021/09/26 07:54:52;;;;;;;15.35;11.25;;;17.70;99.90;;;;;;5048770;28;20025;-80
2021/09/26 07:57:19;;;;;;;14.55;10.60;;;17.80;99.90;;;;;;5049399;28;20379;-80
2021/09/26 07:59:46;;;;;;;13.23;10.90;;;17.80;99.90;;;;;;5050147;28;20021;-80
2021/09/26 08:02:12;;;;;;;15.48;12.40;;;17.80;99.90;;;;;;5051703;28;20035;-80
2021/09/26 08:04:38;;;;;;;15.57;13.95;;;17.90;99.90;;;;;;5051826;28;20052;-80
2021/09/26 08:07:04;;;;;;;11.65;9.82;;;18.10;99.90;;;;;;5050088;28;20566;-80
2021/09/26 08:09:29;;;;;;;12.25;9.30;;;18.30;99.90;;;;;;5050933;28;20021;-80
2021/09/26 08:11:55;;;;;;;15.15;9.80;;;18.40;99.90;;;;;;5051222;28;20025;-80
2021/09/26 08:14:21;;;;;;;15.15;10.38;;;18.60;99.90;;;;;;5049457;28;20025;-80
2021/09/26 08:16:46;;;;;;;15.30;11.05;;;18.70;99.90;;;;;;5052353;28;20032;-80
2021/09/26 08:19:12;;;;;;;13.02;10.15;;;18.80;99.90;;;;;;5056858;28;20021;-79
2021/09/26 08:21:38;;;;;;;12.88;10.48;;;18.80;99.90;;;;;;5049367;28;20082;-79
2021/09/26 08:24:06;;;;;;;14.73;10.05;;;18.80;99.90;;;;;;5039321;28;20037;-79
2021/09/26 08:26:33;;;;;;;16.38;10.85;;;18.80;99.90;;;;;;5055309;28;20045;-80
2021/09/26 08:28:58;;;;;;;12.25;10.38;;;18.90;99.90;;;;;;5056091;28;20541;-80
2021/09/26 08:31:24;;;;;;;11.30;9.27;;;19.00;99.90;;;;;;5054619;28;20029;-80
2021/09/26 08:33:50;;;;;;;13.15;10.30;;;19.10;99.90;;;;;;5055001;28;20067;-80
2021/09/26 08:36:16;;;;;;;11.90;9.65;;;19.30;99.90;;;;;;5055825;28;20047;-80
2021/09/26 08:38:41;;;;;;;13.90;11.13;;;19.30;99.90;;;;;;5054469;28;20501;-80
2021/09/26 08:41:07;;;;;;;14.02;9.65;;;19.40;99.90;;;;;;5054682;28;20025;-79
2021/09/26 08:43:34;;;;;;;15.40;10.27;;;19.50;99.90;;;;;;5054328;28;20025;-80
2021/09/26 08:46:00;;;;;;;10.63;9.52;;;19.70;99.90;;;;;;5054263;28;20491;-80
2021/09/26 08:48:28;;;;;;;12.82;9.88;;;19.90;99.90;;;;;;5053839;28;20036;-78
2021/09/26 08:50:54;;;;;;;11.07;8.88;;;20.00;99.90;;;;;;5041070;28;20041;-79
2021/09/26 08:53:24;;;;;;;9.98;8.32;;;20.10;99.90;;;;;;5054496;28;20360;-79
2021/09/26 08:55:51;;;;;;;9.05;8.18;;;20.10;99.90;;;;;;5034812;28;20018;-76
2021/09/26 08:58:17;;;;;;;10.65;8.25;;;20.30;99.90;;;;;;5056091;28;20027;-76
2021/09/26 09:00:43;;;;;;;8.07;6.90;;;20.40;99.90;;;;;;5055326;28;20116;-75
2021/09/26 09:03:13;;;;;;;12.32;7.68;;;20.40;99.90;;;;;;5054343;28;20447;-76
2021/09/26 09:05:40;;;;;;;11.45;8.77;;;20.60;99.90;;;;;;5054789;28;20451;-76
2021/09/26 09:08:17;;;;;;;7.68;6.78;;;20.60;99.90;;;;;;5055752;28;20378;-75
2021/09/26 09:11:00;;;;;;;6.38;5.78;;;20.60;99.90;;;;;;5053097;28;20418;-76
2021/09/26 09:13:40;;;;;;;9.13;7.00;;;20.70;99.70;;;;;;5044852;28;20018;-76
2021/09/26 09:16:08;;;;;;;7.70;5.70;;;20.70;99.20;;;;;;5047891;28;20044;-76
2021/09/26 09:18:43;;;;;;;6.25;5.65;;;20.80;98.90;;;;;;5042078;28;20021;-76
2021/09/26 09:21:32;;;;;;;6.65;5.97;;;20.90;98.70;;;;;;5048053;28;20021;-75
2021/09/26 09:24:23;;;;;;;9.30;6.03;;;21.00;98.00;;;;;;5044354;28;20022;-76
2021/09/26 09:26:48;;;;;;;7.72;6.25;;;20.90;96.50;;;;;;5047625;28;20037;-76
2021/09/26 09:29:15;;;;;;;7.65;5.90;;;20.90;97.30;;;;;;5046513;28;21194;-75
2021/09/26 09:31:51;;;;;;;10.75;6.22;;;20.80;98.10;;;;;;5046063;28;20025;-76
2021/09/26 09:34:35;;;;;;;7.72;5.88;;;20.90;98.10;;;;;;5046334;28;20013;-76
2021/09/26 09:37:20;;;;;;;9.05;5.43;;;21.10;95.40;;;;;;5041999;28;20021;-76
2021/09/26 09:40:04;;;;;;;7.13;5.25;;;21.20;88.60;;;;;;5042647;28;20040;-76
2021/09/26 09:42:38;;;;;;;9.93;5.22;;;21.30;90.50;;;;;;5043254;28;20021;-75
2021/09/26 09:45:18;;;;;;;5.15;4.65;;;21.30;91.20;;;;;;5043233;28;20037;-76
2021/09/26 09:48:08;;;;;;;5.82;4.88;;;21.40;88.10;;;;;;5059174;28;20378;-76
2021/09/26 09:50:42;;;;;;;8.52;5.00;;;21.20;88.70;;;;;;5043423;28;20395;-76
2021/09/26 09:53:17;;;;;;;4.95;4.03;;;21.00;90.60;;;;;;5041111;28;20022;-76
2021/09/26 09:55:44;;;;;;;6.10;4.90;;;20.90;87.50;;;;;;5045314;28;20055;-75
2021/09/26 09:58:13;;;;;;;7.38;5.07;;;21.00;91.00;;;;;;5040481;28;20025;-75
2021/09/26 10:00:52;;;;;;;6.07;4.25;;;21.10;92.20;;;;;;5041688;28;20017;-76
2021/09/26 10:03:35;;;;;;;6.57;4.45;;;21.20;89.10;;;;;;5043485;28;20040;-76
2021/09/26 10:06:02;;;;;;;6.65;5.00;;;21.20;87.90;;;;;;5060477;28;20034;-76
2021/09/26 10:08:35;;;;;;;7.38;4.45;;;21.10;84.90;;;;;;5042644;28;20119;-76
2021/09/26 10:11:09;;;;;;;7.63;4.75;;;21.20;82.70;;;;;;5043257;28;20033;-76
2021/09/26 10:13:36;;;;;;;6.07;4.20;;;21.10;90.40;;;;;;5040058;28;20017;-76
2021/09/26 10:16:06;;;;;;;6.30;4.80;;;21.00;91.70;;;;;;5044081;28;20157;-76
2021/09/26 10:18:33;;;;;;;4.05;3.70;;;21.00;89.50;;;;;;5042151;28;20407;-76
2021/09/26 10:21:00;;;;;;;5.10;4.68;;;20.90;88.50;;;;;;5040036;28;20020;-76
2021/09/26 10:23:26;;;;;;;4.97;4.40;;;20.90;88.60;;;;;;5042276;28;20052;-76
2021/09/26 10:25:58;;;;;;;7.30;4.43;;;20.90;89.30;;;;;;5046232;28;20037;-76
2021/09/26 10:28:27;;;;;;;5.20;4.70;;;20.90;93.40;;;;;;5043984;28;20025;-76
2021/09/26 10:30:55;;;;;;;4.95;4.15;;;21.10;90.10;;;;;;5047344;28;20275;-76
2021/09/26 10:33:23;;;;;;;5.43;4.00;;;21.30;84.50;;;;;;5056122;28;20028;-75
2021/09/26 10:35:49;;;;;;;13.88;12.40;;;21.40;85.70;;;;;;5040398;28;20112;-76
2021/09/26 10:38:16;;;;;;;6.03;4.53;;;21.40;84.70;;;;;;5044763;28;20040;-76
2021/09/26 10:40:41;;;;;;;5.70;4.47;;;21.40;87.90;;;;;;5044286;28;20035;-76
2021/09/26 10:43:29;;;;;;;5.90;4.88;;;21.40;88.80;;;;;;5041122;28;20541;-76
2021/09/26 10:46:18;;;;;;;7.78;4.68;;;21.40;88.90;;;;;;5043224;28;20040;-76
2021/09/26 10:48:56;;;;;;;7.30;5.03;;;21.30;89.50;;;;;;5043473;28;20487;-77
2021/09/26 10:51:42;;;;;;;5.90;4.45;;;21.20;88.50;;;;;;5047194;28;20032;-78
2021/09/26 10:54:26;;;;;;;6.10;4.78;;;21.10;91.80;;;;;;5044353;28;20025;-76
2021/09/26 10:57:12;;;;;;;5.47;4.97;;;21.10;91.90;;;;;;5044183;28;20037;-76
2021/09/26 10:59:52;;;;;;;10.15;6.10;;;21.00;91.70;;;;;;5041324;28;20028;-76
2021/09/26 11:02:26;;;;;;;6.10;5.03;;;21.10;94.10;;;;;;5042092;28;20020;-76
2021/09/26 11:04:54;;;;;;;6.15;4.93;;;21.00;92.90;;;;;;5048950;28;20025;-76
2021/09/26 11:07:24;;;;;;;5.30;4.80;;;20.90;93.80;;;;;;5045105;28;20040;-76
2021/09/26 11:09:57;;;;;;;5.43;4.93;;;20.90;90.20;;;;;;5041573;28;20288;-76
2021/09/26 11:12:39;;;;;;;7.13;5.57;;;20.80;93.80;;;;;;5038079;28;20021;-76
2021/09/26 11:15:11;;;;;;;6.53;4.57;;;20.90;94.00;;;;;;5043438;28;20037;-76
2021/09/26 11:17:45;;;;;;;9.50;4.57;;;20.90;92.50;;;;;;5038635;28;20496;-77
2021/09/26 11:20:32;;;;;;;5.88;5.28;;;21.00;96.10;;;;;;5044692;28;20565;-77
2021/09/26 11:23:04;;;;;;;5.25;4.72;;;20.90;91.00;;;;;;5047858;28;20391;-78
2021/09/26 11:26:00;;;;;;;6.07;5.30;;;21.00;92.50;;;;;;5049132;28;20108;-76
2021/09/26 11:28:25;;;;;;;5.20;4.70;;;21.10;91.70;;;;;;5042569;28;20068;-75
2021/09/26 11:30:53;;;;;;;7.13;5.63;;;21.30;90.30;;;;;;5046448;28;20687;-76
2021/09/26 11:33:19;;;;;;;8.32;5.78;;;21.40;91.10;;;;;;5043220;28;20112;-76
2021/09/26 11:35:44;;;;;;;5.20;4.70;;;21.40;87.80;;;;;;5045071;28;20489;-77
2021/09/26 11:38:13;;;;;;;5.55;5.05;;;21.40;89.30;;;;;;5041544;28;20493;-77
2021/09/26 11:40:58;;;;;;;5.93;5.32;;;21.40;89.60;;;;;;5043162;28;20021;-76
2021/09/26 11:43:33;;;;;;;6.65;5.20;;;21.50;91.30;;;;;;5041053;28;20364;-77
2021/09/26 11:46:00;;;;;;;6.30;5.60;;;21.60;89.40;;;;;;5042442;28;20029;-77
2021/09/26 11:48:32;;;;;;;6.18;5.68;;;22.00;89.80;;;;;;5042300;28;20024;-76
2021/09/26 11:51:03;;;;;;;6.68;5.00;;;22.00;85.50;;;;;;5048711;28;20387;-75
2021/09/26 11:53:29;;;;;;;5.47;4.95;;;22.00;84.50;;;;;;5043214;28;20120;-75
2021/09/26 11:55:56;;;;;;;5.10;4.55;;;22.00;85.70;;;;;;5045832;28;20025;-76
2021/09/26 11:58:28;;;;;;;4.88;4.40;;;22.00;84.00;;;;;;5045691;28;20029;-75
2021/09/26 12:00:53;;;;;;;5.97;4.60;;;22.00;81.20;;;;;;5044026;28;20021;-75
2021/09/26 12:03:26;;;;;;;6.95;4.97;;;21.80;80.80;;;;;;5048473;28;20025;-75
2021/09/26 12:05:54;;;;;;;6.35;4.50;;;21.80;83.90;;;;;;5042936;28;20029;-76
2021/09/26 12:08:20;;;;;;;5.35;4.85;;;21.70;87.00;;;;;;5041006;28;20016;-75
2021/09/26 12:10:48;;;;;;;4.95;4.55;;;21.70;87.60;;;;;;5049025;28;20028;-76
2021/09/26 12:13:20;;;;;;;5.47;4.72;;;21.70;87.90;;;;;;5046444;28;20017;-76
2021/09/26 12:15:47;;;;;;;6.57;4.97;;;21.80;87.90;;;;;;5054639;28;20021;-76
2021/09/26 12:18:23;;;;;;;5.88;4.60;;;21.60;86.20;;;;;;5048670;28;20479;-76
2021/09/26 12:21:02;;;;;;;5.60;5.00;;;21.60;86.50;;;;;;5040052;28;20158;-76
2021/09/26 12:23:47;;;;;;;5.15;4.60;;;21.70;84.90;;;;;;5046102;28;20025;-76
2021/09/26 12:26:17;;;;;;;6.57;5.10;;;21.80;84.00;;;;;;5046467;28;20029;-75
2021/09/26 12:28:43;;;;;;;7.20;5.60;;;21.70;84.40;;;;;;5046217;28;20107;-75
2021/09/26 12:31:08;;;;;;;5.88;4.60;;;21.60;84.50;;;;;;5048365;28;20104;-77
2021/09/26 12:33:45;;;;;;;5.28;4.72;;;21.70;87.90;;;;;;5045456;28;20160;-75
2021/09/26 12:36:17;;;;;;;5.40;4.75;;;21.70;88.20;;;;;;5058507;28;20100;-75
2021/09/26 12:38:50;;;;;;;5.53;5.03;;;21.70;85.20;;;;;;5045584;28;20021;-76
2021/09/26 12:41:19;;;;;;;5.53;5.03;;;21.70;86.70;;;;;;5042349;28;20025;-76
2021/09/26 12:43:49;;;;;;;5.65;5.15;;;21.80;86.60;;;;;;5044547;28;20060;-75